| time (UTC) | temp F | wind direction | speed MPH | gust MPH | rain 1hr in | rain 24hr in | rain mn in | humidity % | barometer mb |
| 20260508224204 | 73 | 59 | 2.0 | 6.0 | 0.00 | 0.01 | 0.00 | 29 | 1012.7 |
| 20260508223704 | 72 | 305 | 2.0 | 6.0 | 0.00 | 0.01 | 0.00 | 31 | 1012.7 |
| 20260508223204 | 73 | 152 | 3.0 | 6.0 | 0.00 | 0.01 | 0.00 | 29 | 1012.7 |
| 20260508221704 | 72 | 103 | 2.0 | 5.0 | 0.00 | 0.01 | 0.00 | 28 | 1012.7 |
| 20260508221204 | 73 | 118 | 0.0 | 3.0 | 0.00 | 0.01 | 0.00 | 28 | 1012.6 |
| 20260508220704 | 72 | 85 | 2.0 | 5.0 | 0.00 | 0.01 | 0.00 | 28 | 1012.6 |
| 20260508213704 | 72 | 162 | 3.0 | 6.0 | 0.00 | 0.01 | 0.00 | 27 | 1012.4 |
| 20260508213204 | 72 | 238 | 3.0 | 7.0 | 0.00 | 0.01 | 0.00 | 27 | 1012.3 |
| 20260508201704 | 72 | 97 | 5.0 | 8.0 | 0.00 | 0.01 | 0.00 | 30 | 1013.0 |
| 20260508200704 | 71 | 22 | 5.0 | 6.0 | 0.00 | 0.01 | 0.00 | 31 | 1013.3 |
| 20260508200204 | 72 | 79 | 5.0 | 7.0 | 0.00 | 0.01 | 0.00 | 27 | 1013.3 |
| 20260508191704 | 70 | 135 | 2.0 | 6.0 | 0.00 | 0.01 | 0.00 | 30 | 1014.3 |
| 20260508191204 | 70 | 121 | 5.0 | 9.0 | 0.00 | 0.01 | 0.00 | 29 | 1014.8 |
| 20260508190704 | 70 | 108 | 5.0 | 9.0 | 0.00 | 0.01 | 0.00 | 30 | 1014.8 |
| 20260508190204 | 70 | 74 | 5.0 | 8.0 | 0.00 | 0.01 | 0.00 | 32 | 1014.8 |
| 20260508184204 | 70 | 120 | 5.0 | 12.0 | 0.00 | 0.01 | 0.00 | 33 | 1015.0 |
| 20260508183704 | 70 | 85 | 6.0 | 8.0 | 0.00 | 0.01 | 0.00 | 30 | 1015.1 |
| 20260508181204 | 69 | 133 | 6.0 | 9.0 | 0.00 | 0.01 | 0.00 | 31 | 1015.5 |
| 20260508180704 | 69 | 169 | 4.0 | 6.0 | 0.00 | 0.01 | 0.00 | 30 | 1015.5 |
| 20260508180204 | 68 | 15 | 1.0 | 8.0 | 0.00 | 0.01 | 0.00 | 33 | 1015.5 |
| 20260508174704 | 68 | 80 | 4.0 | 8.0 | 0.00 | 0.01 | 0.00 | 33 | 1015.8 |
| 20260508174204 | 69 | 113 | 3.0 | 8.0 | 0.00 | 0.01 | 0.00 | 35 | 1015.8 |
| 20260508173204 | 67 | 50 | 5.0 | 8.0 | 0.00 | 0.01 | 0.00 | 31 | 1016.3 |
| 20260508171704 | 69 | 57 | 6.0 | 8.0 | 0.00 | 0.01 | 0.00 | 32 | 1016.3 |
| 20260508171204 | 69 | 82 | 7.0 | 10.0 | 0.00 | 0.01 | 0.00 | 33 | 1016.5 |
| 20260508163204 | 66 | 194 | 3.0 | 9.0 | 0.00 | 0.01 | 0.00 | 41 | 1017.1 |
| 20260508161204 | 65 | 60 | 2.0 | 5.0 | 0.00 | 0.01 | 0.00 | 39 | 1017.5 |
| 20260508160204 | 65 | 75 | 2.0 | 6.0 | 0.00 | 0.01 | 0.00 | 39 | 1017.5 |
| 20260508154204 | 64 | 35 | 4.0 | 6.0 | 0.00 | 0.01 | 0.00 | 36 | 1017.8 |
| 20260508153704 | 64 | 60 | 5.0 | 6.0 | 0.00 | 0.01 | 0.00 | 41 | 1017.8 |
| 20260508153204 | 64 | 58 | 5.0 | 10.0 | 0.00 | 0.01 | 0.00 | 42 | 1017.8 |
| 20260508150704 | 62 | 112 | 5.0 | 6.0 | 0.00 | 0.01 | 0.00 | 47 | 1018.0 |
| 20260508144204 | 60 | 157 | 2.0 | 6.0 | 0.00 | 0.01 | 0.00 | 58 | 1018.1 |
| 20260508143704 | 60 | 149 | 3.0 | 5.0 | 0.00 | 0.01 | 0.00 | 59 | 1018.1 |
| 20260508143204 | 60 | 180 | 0.0 | 3.0 | 0.00 | 0.01 | 0.00 | 63 | 1018.1 |
| 20260508141204 | 57 | 233 | 1.0 | 3.0 | 0.00 | 0.01 | 0.00 | 68 | 1018.0 |
| 20260508133703 | 53 | 140 | 0.0 | 0.0 | 0.00 | 0.01 | 0.00 | 73 | 1017.8 |
| 20260508130704 | 49 | 136 | 2.0 | 3.0 | 0.00 | 0.01 | 0.00 | 85 | 1017.8 |
| 20260508123704 | 45 | 101 | 0.0 | 0.0 | 0.00 | 0.01 | 0.00 | 91 | 1017.7 |
| 20260508123204 | 44 | 113 | 0.0 | 0.0 | 0.00 | 0.01 | 0.00 | 92 | 1017.7 |
| 20260508121704 | 40 | 270 | 0.0 | 0.0 | 0.00 | 0.01 | 0.00 | 95 | 1017.6 |
| 20260508120204 | 38 | 112 | 0.0 | 0.0 | 0.00 | 0.01 | 0.00 | 95 | 1017.7 |
| 20260508113703 | 36 | 135 | 0.0 | 0.0 | 0.00 | 0.01 | 0.00 | 95 | 1017.4 |
| 20260508111204 | 37 | 158 | 0.0 | 0.0 | 0.00 | 0.01 | 0.00 | 95 | 1017.0 |
| 20260508110703 | 37 | 135 | 0.0 | 0.0 | 0.00 | 0.01 | 0.00 | 95 | 1017.0 |
| 20260508104704 | 36 | 311 | 0.0 | 0.0 | 0.00 | 0.01 | 0.00 | 95 | 1016.8 |
| 20260508104204 | 36 | 346 | 0.0 | 0.0 | 0.00 | 0.01 | 0.00 | 95 | 1016.8 |
| 20260508101704 | 37 | 122 | 0.0 | 0.0 | 0.00 | 0.01 | 0.00 | 95 | 1016.5 |
| 20260508100204 | 37 | 243 | 0.0 | 0.0 | 0.00 | 0.01 | 0.00 | 95 | 1016.3 |
| 20260508094204 | 37 | 135 | 0.0 | 0.0 | 0.00 | 0.01 | 0.00 | 95 | 1016.3 |
| 20260508093704 | 37 | 327 | 0.0 | 0.0 | 0.00 | 0.01 | 0.00 | 95 | 1016.3 |
| 20260508093204 | 37 | 270 | 0.0 | 0.0 | 0.00 | 0.01 | 0.00 | 95 | 1016.3 |
| 20260508091703 | 37 | 124 | 0.0 | 0.0 | 0.00 | 0.01 | 0.00 | 95 | 1016.3 |
| 20260508090204 | 38 | 112 | 0.0 | 0.0 | 0.00 | 0.02 | 0.00 | 95 | 1016.3 |
| 20260508084704 | 39 | 237 | 0.0 | 0.0 | 0.00 | 0.02 | 0.00 | 95 | 1016.3 |
| 20260508084204 | 39 | 270 | 0.0 | 0.0 | 0.00 | 0.02 | 0.00 | 95 | 1016.3 |
| 20260508083704 | 39 | 270 | 0.0 | 0.0 | 0.00 | 0.02 | 0.00 | 95 | 1016.3 |
| 20260508080703 | 39 | 292 | 0.0 | 0.0 | 0.00 | 0.02 | 0.00 | 95 | 1016.5 |
| 20260508073704 | 39 | 12 | 0.0 | 0.0 | 0.00 | 0.02 | 0.00 | 95 | 1016.5 |
| 20260508073204 | 39 | 45 | 0.0 | 0.0 | 0.00 | 0.02 | 0.00 | 95 | 1016.5 |
| 20260508071204 | 39 | 125 | 0.0 | 0.0 | 0.00 | 0.02 | 0.00 | 95 | 1016.6 |
| 20260508063204 | 40 | 270 | 0.0 | 0.0 | 0.00 | 0.02 | 0.00 | 95 | 1016.6 |
| 20260508061704 | 40 | 248 | 0.0 | 0.0 | 0.00 | 0.02 | 0.00 | 95 | 1016.3 |
| 20260508060704 | 40 | 225 | 0.0 | 0.0 | 0.00 | 0.02 | 0.00 | 95 | 1016.5 |
| 20260508054204 | 41 | 202 | 0.0 | 0.0 | 0.00 | 0.02 | 0.00 | 92 | 1016.7 |
| 20260508053704 | 41 | 158 | 0.0 | 0.0 | 0.00 | 0.02 | 0.00 | 92 | 1016.7 |
| 20260508053204 | 41 | 110 | 0.0 | 0.0 | 0.00 | 0.02 | 0.00 | 92 | 1016.8 |
| 20260508051204 | 42 | 202 | 0.0 | 0.0 | 0.00 | 0.02 | 0.00 | 93 | 1016.8 |
| 20260508050704 | 42 | 225 | 0.0 | 0.0 | 0.00 | 0.02 | 0.00 | 93 | 1016.8 |
| 20260508044704 | 42 | 261 | 0.0 | 0.0 | 0.00 | 0.02 | 0.00 | 93 | 1016.7 |
| 20260508043704 | 42 | 265 | 0.0 | 0.0 | 0.00 | 0.02 | 0.00 | 93 | 1016.6 |
| 20260508040704 | 43 | 112 | 0.0 | 0.0 | 0.00 | 0.02 | 0.00 | 86 | 1016.3 |
| 20260508040204 | 43 | 112 | 0.0 | 0.0 | 0.00 | 0.02 | 0.00 | 86 | 1016.3 |
| 20260508034704 | 44 | 225 | 0.0 | 0.0 | 0.00 | 0.02 | 0.02 | 88 | 1016.2 |
| 20260508033704 | 44 | 242 | 0.0 | 0.0 | 0.00 | 0.02 | 0.02 | 83 | 1016.1 |
| 20260508031204 | 46 | 270 | 0.0 | 0.0 | 0.00 | 0.04 | 0.02 | 78 | 1016.3 |
| 20260508030704 | 46 | 292 | 0.0 | 0.0 | 0.00 | 0.04 | 0.02 | 81 | 1016.3 |
| 20260508030204 | 46 | 273 | 0.0 | 0.0 | 0.00 | 0.06 | 0.02 | 79 | 1016.3 |
| 20260508024704 | 47 | 251 | 0.0 | 0.0 | 0.00 | 0.12 | 0.02 | 81 | 1016.0 |
| 20260508024204 | 47 | 248 | 0.0 | 0.0 | 0.00 | 0.12 | 0.02 | 81 | 1016.0 |
| 20260508023704 | 47 | 226 | 0.0 | 0.0 | 0.00 | 0.12 | 0.02 | 76 | 1015.8 |
| 20260508021704 | 48 | 242 | 0.0 | 0.0 | 0.00 | 0.12 | 0.02 | 82 | 1015.8 |
| 20260508020704 | 48 | 270 | 0.0 | 0.0 | 0.00 | 0.12 | 0.02 | 79 | 1015.7 |
| 20260508020204 | 48 | 270 | 0.0 | 0.0 | 0.00 | 0.12 | 0.02 | 76 | 1015.6 |
| 20260508014704 | 49 | 270 | 0.0 | 0.0 | 0.00 | 0.12 | 0.02 | 77 | 1015.2 |
| 20260508014204 | 49 | 269 | 0.0 | 0.0 | 0.00 | 0.13 | 0.02 | 72 | 1015.2 |
| 20260508013704 | 50 | 244 | 0.0 | 0.0 | 0.00 | 0.14 | 0.02 | 72 | 1015.0 |
| 20260508011204 | 51 | 258 | 0.0 | 0.0 | 0.00 | 0.14 | 0.02 | 71 | 1014.7 |
| 20260508004204 | 55 | 266 | 0.0 | 0.0 | 0.01 | 0.18 | 0.02 | 60 | 1014.5 |
| 20260508003703 | 56 | 243 | 0.0 | 0.0 | 0.01 | 0.20 | 0.02 | 60 | 1014.3 |
| 20260508001704 | 60 | 202 | 0.0 | 0.0 | 0.01 | 0.22 | 0.02 | 57 | 1014.3 |
| 20260507233204 | 62 | 285 | 1.0 | 6.0 | 0.00 | 0.24 | 0.01 | 47 | 1014.0 |
| 20260507231204 | 64 | 213 | 2.0 | 3.0 | 0.00 | 0.24 | 0.01 | 45 | 1014.1 |
| 20260507230704 | 65 | 254 | 0.0 | 2.0 | 0.00 | 0.24 | 0.01 | 48 | 1014.1 |